sensor_id;sensor_type;location;lat;lon;timestamp;temperature;humidity
34542;DHT22;20784;51.332;12.410;2023-04-06T00:00:45;5.00;99.90
34542;DHT22;20784;51.332;12.410;2023-04-06T00:03:34;4.90;99.90
34542;DHT22;20784;51.332;12.410;2023-04-06T00:06:19;4.70;99.90
34542;DHT22;20784;51.332;12.410;2023-04-06T00:09:02;4.70;99.90
34542;DHT22;20784;51.332;12.410;2023-04-06T00:12:05;4.70;99.90
34542;DHT22;20784;51.332;12.410;2023-04-06T00:14:48;4.70;99.90
34542;DHT22;20784;51.332;12.410;2023-04-06T00:17:22;4.60;99.90
34542;DHT22;20784;51.332;12.410;2023-04-06T00:19:50;4.70;99.90
34542;DHT22;20784;51.332;12.410;2023-04-06T00:22:29;4.90;99.90
34542;DHT22;20784;51.332;12.410;2023-04-06T00:24:57;4.80;99.90
34542;DHT22;20784;51.332;12.410;2023-04-06T00:27:22;4.90;99.90
34542;DHT22;20784;51.332;12.410;2023-04-06T00:29:56;4.80;99.90
34542;DHT22;20784;51.332;12.410;2023-04-06T00:32:25;4.70;99.90
34542;DHT22;20784;51.332;12.410;2023-04-06T00:34:51;4.60;99.90
34542;DHT22;20784;51.332;12.410;2023-04-06T00:37:57;4.70;99.90
34542;DHT22;20784;51.332;12.410;2023-04-06T00:40:23;4.60;99.90
34542;DHT22;20784;51.332;12.410;2023-04-06T00:43:00;4.60;99.90
34542;DHT22;20784;51.332;12.410;2023-04-06T00:45:35;4.50;99.90
34542;DHT22;20784;51.332;12.410;2023-04-06T00:48:06;4.50;99.90
34542;DHT22;20784;51.332;12.410;2023-04-06T00:50:32;4.40;99.90
34542;DHT22;20784;51.332;12.410;2023-04-06T00:53:01;4.40;99.90
34542;DHT22;20784;51.332;12.410;2023-04-06T00:55:30;4.40;99.90
34542;DHT22;20784;51.332;12.410;2023-04-06T00:58:04;4.40;99.90
34542;DHT22;20784;51.332;12.410;2023-04-06T01:00:33;4.30;99.90
34542;DHT22;20784;51.332;12.410;2023-04-06T01:03:04;4.20;99.90
34542;DHT22;20784;51.332;12.410;2023-04-06T01:05:34;4.20;99.90
34542;DHT22;20784;51.332;12.410;2023-04-06T01:08:13;4.30;99.90
34542;DHT22;20784;51.332;12.410;2023-04-06T01:10:50;4.30;99.90
34542;DHT22;20784;51.332;12.410;2023-04-06T01:13:34;4.30;99.90
34542;DHT22;20784;51.332;12.410;2023-04-06T01:16:03;4.40;99.90
34542;DHT22;20784;51.332;12.410;2023-04-06T01:18:45;4.30;99.90
34542;DHT22;20784;51.332;12.410;2023-04-06T01:21:24;4.20;99.90
34542;DHT22;20784;51.332;12.410;2023-04-06T01:24:09;4.20;99.90
34542;DHT22;20784;51.332;12.410;2023-04-06T01:26:56;4.30;99.90
34542;DHT22;20784;51.332;12.410;2023-04-06T01:29:44;4.20;99.90
34542;DHT22;20784;51.332;12.410;2023-04-06T01:32:20;4.10;99.90
34542;DHT22;20784;51.332;12.410;2023-04-06T01:34:46;4.00;99.90
34542;DHT22;20784;51.332;12.410;2023-04-06T01:37:17;4.10;99.90
34542;DHT22;20784;51.332;12.410;2023-04-06T01:39:46;4.00;99.90
34542;DHT22;20784;51.332;12.410;2023-04-06T01:42:13;4.00;99.90
34542;DHT22;20784;51.332;12.410;2023-04-06T01:44:54;4.10;99.90
34542;DHT22;20784;51.332;12.410;2023-04-06T01:47:25;4.00;99.90
34542;DHT22;20784;51.332;12.410;2023-04-06T01:49:56;4.10;99.90
34542;DHT22;20784;51.332;12.410;2023-04-06T01:52:36;4.10;99.90
34542;DHT22;20784;51.332;12.410;2023-04-06T01:55:09;4.10;99.90
34542;DHT22;20784;51.332;12.410;2023-04-06T01:57:37;4.00;99.90
34542;DHT22;20784;51.332;12.410;2023-04-06T02:00:04;4.00;99.90
34542;DHT22;20784;51.332;12.410;2023-04-06T02:02:36;4.00;99.90
34542;DHT22;20784;51.332;12.410;2023-04-06T02:05:05;3.90;99.90
34542;DHT22;20784;51.332;12.410;2023-04-06T02:07:31;4.00;99.90
34542;DHT22;20784;51.332;12.410;2023-04-06T02:10:16;4.00;99.90
34542;DHT22;20784;51.332;12.410;2023-04-06T02:12:53;3.80;99.90
34542;DHT22;20784;51.332;12.410;2023-04-06T02:15:21;4.00;99.90
34542;DHT22;20784;51.332;12.410;2023-04-06T02:17:47;4.00;99.90
34542;DHT22;20784;51.332;12.410;2023-04-06T02:20:19;4.00;99.90
34542;DHT22;20784;51.332;12.410;2023-04-06T02:22:53;3.90;99.90
34542;DHT22;20784;51.332;12.410;2023-04-06T02:28:58;3.80;99.90
34542;DHT22;20784;51.332;12.410;2023-04-06T02:34:54;3.70;99.90
34542;DHT22;20784;51.332;12.410;2023-04-06T02:40:39;3.80;99.90
34542;DHT22;20784;51.332;12.410;2023-04-06T02:43:05;3.80;99.90
34542;DHT22;20784;51.332;12.410;2023-04-06T02:45:56;3.70;99.90
34542;DHT22;20784;51.332;12.410;2023-04-06T02:48:51;3.70;99.90
34542;DHT22;20784;51.332;12.410;2023-04-06T02:51:27;3.70;99.90
34542;DHT22;20784;51.332;12.410;2023-04-06T02:54:11;3.70;99.90
34542;DHT22;20784;51.332;12.410;2023-04-06T02:56:40;3.70;99.90
34542;DHT22;20784;51.332;12.410;2023-04-06T02:59:11;3.70;99.90
34542;DHT22;20784;51.332;12.410;2023-04-06T03:01:43;3.70;99.90
34542;DHT22;20784;51.332;12.410;2023-04-06T03:04:09;3.80;99.90
34542;DHT22;20784;51.332;12.410;2023-04-06T03:06:36;3.80;99.90
34542;DHT22;20784;51.332;12.410;2023-04-06T03:09:09;3.90;99.90
34542;DHT22;20784;51.332;12.410;2023-04-06T03:11:48;3.90;99.90
34542;DHT22;20784;51.332;12.410;2023-04-06T03:14:38;3.80;99.90
34542;DHT22;20784;51.332;12.410;2023-04-06T03:27:29;3.80;99.90
34542;DHT22;20784;51.332;12.410;2023-04-06T03:30:34;3.80;99.90
34542;DHT22;20784;51.332;12.410;2023-04-06T03:33:30;3.80;99.90
34542;DHT22;20784;51.332;12.410;2023-04-06T03:36:29;3.80;99.90
34542;DHT22;20784;51.332;12.410;2023-04-06T03:39:01;3.80;99.90
34542;DHT22;20784;51.332;12.410;2023-04-06T03:41:30;3.70;99.90
34542;DHT22;20784;51.332;12.410;2023-04-06T03:44:27;3.70;99.90
34542;DHT22;20784;51.332;12.410;2023-04-06T03:47:06;3.70;99.90
34542;DHT22;20784;51.332;12.410;2023-04-06T03:49:56;3.70;99.90
34542;DHT22;20784;51.332;12.410;2023-04-06T03:52:34;3.70;99.90
34542;DHT22;20784;51.332;12.410;2023-04-06T03:55:23;3.70;99.90
34542;DHT22;20784;51.332;12.410;2023-04-06T03:58:26;3.70;99.90
34542;DHT22;20784;51.332;12.410;2023-04-06T04:01:03;3.70;99.90
34542;DHT22;20784;51.332;12.410;2023-04-06T04:03:38;3.60;99.90
34542;DHT22;20784;51.332;12.410;2023-04-06T04:06:25;3.60;99.90
34542;DHT22;20784;51.332;12.410;2023-04-06T04:09:01;3.70;99.90
34542;DHT22;20784;51.332;12.410;2023-04-06T04:11:32;3.60;99.90
34542;DHT22;20784;51.332;12.410;2023-04-06T04:14:10;3.60;99.90
34542;DHT22;20784;51.332;12.410;2023-04-06T04:16:36;3.40;99.90
34542;DHT22;20784;51.332;12.410;2023-04-06T04:19:24;3.50;99.90
34542;DHT22;20784;51.332;12.410;2023-04-06T04:22:01;3.50;99.90
34542;DHT22;20784;51.332;12.410;2023-04-06T04:24:32;3.50;99.90
34542;DHT22;20784;51.332;12.410;2023-04-06T04:26:59;3.40;99.90
34542;DHT22;20784;51.332;12.410;2023-04-06T04:29:33;3.30;99.90
34542;DHT22;20784;51.332;12.410;2023-04-06T04:32:12;3.30;99.90
34542;DHT22;20784;51.332;12.410;2023-04-06T04:34:48;3.20;99.90
34542;DHT22;20784;51.332;12.410;2023-04-06T04:40:44;3.10;99.90
34542;DHT22;20784;51.332;12.410;2023-04-06T04:43:13;3.10;99.90
34542;DHT22;20784;51.332;12.410;2023-04-06T04:45:42;3.10;99.90
34542;DHT22;20784;51.332;12.410;2023-04-06T04:51:44;3.10;99.90
34542;DHT22;20784;51.332;12.410;2023-04-06T04:54:21;3.10;99.90
34542;DHT22;20784;51.332;12.410;2023-04-06T04:56:47;3.20;99.90
34542;DHT22;20784;51.332;12.410;2023-04-06T04:59:34;3.20;99.90
34542;DHT22;20784;51.332;12.410;2023-04-06T05:02:11;3.20;99.90
34542;DHT22;20784;51.332;12.410;2023-04-06T05:04:45;3.20;99.90
34542;DHT22;20784;51.332;12.410;2023-04-06T05:07:30;3.20;99.90
34542;DHT22;20784;51.332;12.410;2023-04-06T05:10:34;3.30;99.90
34542;DHT22;20784;51.332;12.410;2023-04-06T05:13:19;3.30;99.90
34542;DHT22;20784;51.332;12.410;2023-04-06T05:15:54;3.40;99.90
34542;DHT22;20784;51.332;12.410;2023-04-06T05:18:20;3.40;99.90
34542;DHT22;20784;51.332;12.410;2023-04-06T05:20:52;3.40;99.90
34542;DHT22;20784;51.332;12.410;2023-04-06T05:23:32;3.50;99.90
34542;DHT22;20784;51.332;12.410;2023-04-06T05:26:03;3.60;99.90
34542;DHT22;20784;51.332;12.410;2023-04-06T05:28:33;3.80;99.90
34542;DHT22;20784;51.332;12.410;2023-04-06T05:31:10;3.80;99.90
34542;DHT22;20784;51.332;12.410;2023-04-06T05:33:45;3.90;99.90
34542;DHT22;20784;51.332;12.410;2023-04-06T05:36:11;4.00;99.90
34542;DHT22;20784;51.332;12.410;2023-04-06T05:38:37;4.10;99.90
34542;DHT22;20784;51.332;12.410;2023-04-06T05:41:03;4.20;99.90
34542;DHT22;20784;51.332;12.410;2023-04-06T05:43:36;4.20;99.90
34542;DHT22;20784;51.332;12.410;2023-04-06T05:46:02;4.30;99.90
34542;DHT22;20784;51.332;12.410;2023-04-06T05:48:28;4.40;99.90
34542;DHT22;20784;51.332;12.410;2023-04-06T05:50:54;4.50;99.90
34542;DHT22;20784;51.332;12.410;2023-04-06T05:53:19;4.60;99.90
34542;DHT22;20784;51.332;12.410;2023-04-06T05:55:57;4.60;99.90
34542;DHT22;20784;51.332;12.410;2023-04-06T05:58:25;4.60;99.90
34542;DHT22;20784;51.332;12.410;2023-04-06T06:01:00;4.70;99.90
34542;DHT22;20784;51.332;12.410;2023-04-06T06:03:26;4.70;99.90
34542;DHT22;20784;51.332;12.410;2023-04-06T06:06:04;4.70;99.90
34542;DHT22;20784;51.332;12.410;2023-04-06T06:08:42;4.90;99.90
34542;DHT22;20784;51.332;12.410;2023-04-06T06:11:13;4.80;99.90
34542;DHT22;20784;51.332;12.410;2023-04-06T06:13:44;4.90;99.90
34542;DHT22;20784;51.332;12.410;2023-04-06T06:16:19;4.90;99.90
34542;DHT22;20784;51.332;12.410;2023-04-06T06:18:59;5.10;99.90
34542;DHT22;20784;51.332;12.410;2023-04-06T06:21:39;5.30;99.90
34542;DHT22;20784;51.332;12.410;2023-04-06T06:24:06;5.40;99.90
34542;DHT22;20784;51.332;12.410;2023-04-06T06:26:35;5.50;99.90
34542;DHT22;20784;51.332;12.410;2023-04-06T06:29:03;5.60;99.90
34542;DHT22;20784;51.332;12.410;2023-04-06T06:31:42;5.70;99.90
34542;DHT22;20784;51.332;12.410;2023-04-06T06:34:07;5.80;99.90
34542;DHT22;20784;51.332;12.410;2023-04-06T06:36:54;5.90;99.90
34542;DHT22;20784;51.332;12.410;2023-04-06T06:39:55;5.80;99.90
34542;DHT22;20784;51.332;12.410;2023-04-06T06:45:27;6.00;99.90
34542;DHT22;20784;51.332;12.410;2023-04-06T06:48:28;6.10;99.90
34542;DHT22;20784;51.332;12.410;2023-04-06T06:51:06;6.20;99.90
34542;DHT22;20784;51.332;12.410;2023-04-06T06:53:39;6.10;99.90
34542;DHT22;20784;51.332;12.410;2023-04-06T06:56:26;6.20;99.90
34542;DHT22;20784;51.332;12.410;2023-04-06T06:58:55;6.20;99.90
34542;DHT22;20784;51.332;12.410;2023-04-06T07:01:26;6.40;99.90
34542;DHT22;20784;51.332;12.410;2023-04-06T07:03:58;6.50;99.90
34542;DHT22;20784;51.332;12.410;2023-04-06T07:06:36;6.60;99.90
34542;DHT22;20784;51.332;12.410;2023-04-06T07:09:05;6.60;99.90
34542;DHT22;20784;51.332;12.410;2023-04-06T07:11:34;6.70;99.90
34542;DHT22;20784;51.332;12.410;2023-04-06T07:17:02;6.90;99.90
34542;DHT22;20784;51.332;12.410;2023-04-06T07:19:37;6.90;99.90
34542;DHT22;20784;51.332;12.410;2023-04-06T07:22:19;6.90;99.90
34542;DHT22;20784;51.332;12.410;2023-04-06T07:24:48;7.00;99.90
34542;DHT22;20784;51.332;12.410;2023-04-06T07:27:21;7.20;99.90
34542;DHT22;20784;51.332;12.410;2023-04-06T07:29:49;7.50;99.90
34542;DHT22;20784;51.332;12.410;2023-04-06T07:32:15;7.80;99.90
34542;DHT22;20784;51.332;12.410;2023-04-06T07:34:41;8.00;99.90
34542;DHT22;20784;51.332;12.410;2023-04-06T07:37:10;8.20;99.90
34542;DHT22;20784;51.332;12.410;2023-04-06T07:39:38;8.40;99.90
34542;DHT22;20784;51.332;12.410;2023-04-06T07:42:04;8.50;99.90
34542;DHT22;20784;51.332;12.410;2023-04-06T07:44:35;8.60;99.90
34542;DHT22;20784;51.332;12.410;2023-04-06T07:47:04;8.50;99.90
34542;DHT22;20784;51.332;12.410;2023-04-06T07:49:32;8.90;99.90
34542;DHT22;20784;51.332;12.410;2023-04-06T07:52:07;9.10;99.90
34542;DHT22;20784;51.332;12.410;2023-04-06T07:54:36;9.30;99.90
34542;DHT22;20784;51.332;12.410;2023-04-06T07:57:04;9.70;99.90
34542;DHT22;20784;51.332;12.410;2023-04-06T07:59:46;9.90;99.90
34542;DHT22;20784;51.332;12.410;2023-04-06T08:05:33;10.40;99.90
34542;DHT22;20784;51.332;12.410;2023-04-06T08:08:33;10.70;99.90
34542;DHT22;20784;51.332;12.410;2023-04-06T08:11:02;11.00;99.90
34542;DHT22;20784;51.332;12.410;2023-04-06T08:13:36;11.20;99.90
34542;DHT22;20784;51.332;12.410;2023-04-06T08:16:26;11.40;99.90
34542;DHT22;20784;51.332;12.410;2023-04-06T08:18:56;11.70;99.90
34542;DHT22;20784;51.332;12.410;2023-04-06T08:21:45;11.90;99.90
34542;DHT22;20784;51.332;12.410;2023-04-06T08:24:55;12.10;99.90
34542;DHT22;20784;51.332;12.410;2023-04-06T08:27:21;12.40;99.90
34542;DHT22;20784;51.332;12.410;2023-04-06T08:29:49;12.60;99.90
34542;DHT22;20784;51.332;12.410;2023-04-06T08:35:27;12.40;99.90
34542;DHT22;20784;51.332;12.410;2023-04-06T08:37:59;12.90;99.90
34542;DHT22;20784;51.332;12.410;2023-04-06T08:43:38;12.60;99.90
34542;DHT22;20784;51.332;12.410;2023-04-06T08:46:18;12.90;99.90
34542;DHT22;20784;51.332;12.410;2023-04-06T08:48:48;13.00;99.90
34542;DHT22;20784;51.332;12.410;2023-04-06T08:51:17;13.10;99.90
34542;DHT22;20784;51.332;12.410;2023-04-06T08:54:21;13.20;99.90
34542;DHT22;20784;51.332;12.410;2023-04-06T08:56:50;13.10;99.90
34542;DHT22;20784;51.332;12.410;2023-04-06T08:59:17;13.30;99.90
34542;DHT22;20784;51.332;12.410;2023-04-06T09:01:44;13.80;99.90
34542;DHT22;20784;51.332;12.410;2023-04-06T09:04:53;14.30;99.90
34542;DHT22;20784;51.332;12.410;2023-04-06T09:07:24;14.30;99.90
34542;DHT22;20784;51.332;12.410;2023-04-06T09:10:00;14.10;99.90
34542;DHT22;20784;51.332;12.410;2023-04-06T09:12:27;14.40;99.90
34542;DHT22;20784;51.332;12.410;2023-04-06T09:15:02;14.70;99.90
34542;DHT22;20784;51.332;12.410;2023-04-06T09:17:34;14.70;99.90
34542;DHT22;20784;51.332;12.410;2023-04-06T09:20:11;15.10;99.90
34542;DHT22;20784;51.332;12.410;2023-04-06T09:22:46;15.50;99.90
34542;DHT22;20784;51.332;12.410;2023-04-06T09:25:19;15.60;99.90
34542;DHT22;20784;51.332;12.410;2023-04-06T09:27:57;15.50;99.90
34542;DHT22;20784;51.332;12.410;2023-04-06T09:30:26;15.80;99.90
34542;DHT22;20784;51.332;12.410;2023-04-06T09:32:57;16.20;98.30
34542;DHT22;20784;51.332;12.410;2023-04-06T09:35:25;16.50;98.70
34542;DHT22;20784;51.332;12.410;2023-04-06T09:37:59;16.90;96.90
34542;DHT22;20784;51.332;12.410;2023-04-06T09:40:38;17.00;94.30
34542;DHT22;20784;51.332;12.410;2023-04-06T09:43:27;16.80;90.80
34542;DHT22;20784;51.332;12.410;2023-04-06T09:45:56;16.00;91.10
34542;DHT22;20784;51.332;12.410;2023-04-06T09:48:27;15.90;92.30
34542;DHT22;20784;51.332;12.410;2023-04-06T09:51:04;15.90;90.90
34542;DHT22;20784;51.332;12.410;2023-04-06T09:53:33;15.90;89.90
34542;DHT22;20784;51.332;12.410;2023-04-06T09:56:10;16.70;90.70
34542;DHT22;20784;51.332;12.410;2023-04-06T09:58:49;17.50;88.50
34542;DHT22;20784;51.332;12.410;2023-04-06T10:01:21;18.00;86.70
34542;DHT22;20784;51.332;12.410;2023-04-06T10:06:52;18.10;82.80
34542;DHT22;20784;51.332;12.410;2023-04-06T10:09:22;17.70;78.70
34542;DHT22;20784;51.332;12.410;2023-04-06T10:12:02;17.50;82.20
34542;DHT22;20784;51.332;12.410;2023-04-06T10:14:34;17.70;81.20
34542;DHT22;20784;51.332;12.410;2023-04-06T10:17:03;17.50;79.80
34542;DHT22;20784;51.332;12.410;2023-04-06T10:19:47;17.20;81.00
34542;DHT22;20784;51.332;12.410;2023-04-06T10:22:26;17.00;84.50
34542;DHT22;20784;51.332;12.410;2023-04-06T10:24:57;17.20;82.90
34542;DHT22;20784;51.332;12.410;2023-04-06T10:27:30;17.40;80.00
34542;DHT22;20784;51.332;12.410;2023-04-06T10:30:02;17.70;81.00
34542;DHT22;20784;51.332;12.410;2023-04-06T10:32:38;17.80;79.00
34542;DHT22;20784;51.332;12.410;2023-04-06T10:35:11;18.10;79.40
34542;DHT22;20784;51.332;12.410;2023-04-06T10:38:03;17.70;76.30
34542;DHT22;20784;51.332;12.410;2023-04-06T10:40:35;17.40;79.80
34542;DHT22;20784;51.332;12.410;2023-04-06T10:43:12;16.70;76.20
34542;DHT22;20784;51.332;12.410;2023-04-06T10:45:41;15.80;77.30
34542;DHT22;20784;51.332;12.410;2023-04-06T10:48:16;15.60;79.50
34542;DHT22;20784;51.332;12.410;2023-04-06T10:51:06;16.00;78.50
34542;DHT22;20784;51.332;12.410;2023-04-06T10:53:33;16.20;79.10
34542;DHT22;20784;51.332;12.410;2023-04-06T10:56:05;16.30;77.20
34542;DHT22;20784;51.332;12.410;2023-04-06T10:58:34;16.10;77.60
34542;DHT22;20784;51.332;12.410;2023-04-06T11:01:00;16.20;78.00
34542;DHT22;20784;51.332;12.410;2023-04-06T11:03:26;16.70;79.90
34542;DHT22;20784;51.332;12.410;2023-04-06T11:05:52;17.00;77.10
34542;DHT22;20784;51.332;12.410;2023-04-06T11:08:31;17.30;77.90
34542;DHT22;20784;51.332;12.410;2023-04-06T11:11:27;17.20;75.00
34542;DHT22;20784;51.332;12.410;2023-04-06T11:14:11;16.90;78.10
34542;DHT22;20784;51.332;12.410;2023-04-06T11:17:07;17.60;76.90
34542;DHT22;20784;51.332;12.410;2023-04-06T11:19:48;18.00;74.70
34542;DHT22;20784;51.332;12.410;2023-04-06T11:22:14;18.10;75.20
34542;DHT22;20784;51.332;12.410;2023-04-06T11:24:43;18.60;73.90
34542;DHT22;20784;51.332;12.410;2023-04-06T11:27:12;18.90;71.90
34542;DHT22;20784;51.332;12.410;2023-04-06T11:29:40;19.00;72.20
34542;DHT22;20784;51.332;12.410;2023-04-06T11:32:06;18.60;71.40
34542;DHT22;20784;51.332;12.410;2023-04-06T11:34:51;18.40;70.10
34542;DHT22;20784;51.332;12.410;2023-04-06T11:37:16;18.70;69.50
34542;DHT22;20784;51.332;12.410;2023-04-06T11:39:54;18.50;69.20
34542;DHT22;20784;51.332;12.410;2023-04-06T11:42:27;18.00;70.30
34542;DHT22;20784;51.332;12.410;2023-04-06T11:44:59;17.70;68.90
34542;DHT22;20784;51.332;12.410;2023-04-06T11:47:35;17.50;72.00
34542;DHT22;20784;51.332;12.410;2023-04-06T11:50:32;17.70;70.30
34542;DHT22;20784;51.332;12.410;2023-04-06T11:53:15;17.80;69.60
34542;DHT22;20784;51.332;12.410;2023-04-06T11:55:52;17.40;69.60
34542;DHT22;20784;51.332;12.410;2023-04-06T11:58:17;17.10;70.20
34542;DHT22;20784;51.332;12.410;2023-04-06T12:00:51;17.40;70.70
34542;DHT22;20784;51.332;12.410;2023-04-06T12:03:18;17.80;69.60
34542;DHT22;20784;51.332;12.410;2023-04-06T12:05:46;17.60;68.10
34542;DHT22;20784;51.332;12.410;2023-04-06T12:11:22;17.90;68.70
34542;DHT22;20784;51.332;12.410;2023-04-06T12:17:41;17.60;68.80
34542;DHT22;20784;51.332;12.410;2023-04-06T12:20:12;16.90;69.00
34542;DHT22;20784;51.332;12.410;2023-04-06T12:23:04;16.90;69.90
34542;DHT22;20784;51.332;12.410;2023-04-06T12:25:33;16.80;68.60
34542;DHT22;20784;51.332;12.410;2023-04-06T12:27:59;16.80;70.00
34542;DHT22;20784;51.332;12.410;2023-04-06T12:30:25;16.40;69.70
34542;DHT22;20784;51.332;12.410;2023-04-06T12:32:51;16.50;71.10
34542;DHT22;20784;51.332;12.410;2023-04-06T12:35:16;16.60;72.00
34542;DHT22;20784;51.332;12.410;2023-04-06T12:37:45;16.70;70.30
34542;DHT22;20784;51.332;12.410;2023-04-06T12:40:36;16.90;70.90
34542;DHT22;20784;51.332;12.410;2023-04-06T12:43:03;17.00;69.60
34542;DHT22;20784;51.332;12.410;2023-04-06T12:45:30;16.90;70.30
34542;DHT22;20784;51.332;12.410;2023-04-06T12:48:13;17.10;69.20
34542;DHT22;20784;51.332;12.410;2023-04-06T12:50:57;17.20;69.40
34542;DHT22;20784;51.332;12.410;2023-04-06T12:53:41;17.20;70.70
34542;DHT22;20784;51.332;12.410;2023-04-06T12:56:25;17.20;68.40
34542;DHT22;20784;51.332;12.410;2023-04-06T12:59:18;16.90;69.30
34542;DHT22;20784;51.332;12.410;2023-04-06T13:01:54;16.50;70.30
34542;DHT22;20784;51.332;12.410;2023-04-06T13:07:28;16.50;69.50
34542;DHT22;20784;51.332;12.410;2023-04-06T13:09:56;16.70;71.20
34542;DHT22;20784;51.332;12.410;2023-04-06T13:12:22;16.50;68.90
34542;DHT22;20784;51.332;12.410;2023-04-06T13:15:05;16.20;68.10
34542;DHT22;20784;51.332;12.410;2023-04-06T13:17:34;16.20;69.60
34542;DHT22;20784;51.332;12.410;2023-04-06T13:20:02;16.10;70.30
34542;DHT22;20784;51.332;12.410;2023-04-06T13:22:31;16.30;69.90
34542;DHT22;20784;51.332;12.410;2023-04-06T13:25:22;16.40;72.00
34542;DHT22;20784;51.332;12.410;2023-04-06T13:28:23;16.70;69.10
34542;DHT22;20784;51.332;12.410;2023-04-06T13:30:55;16.50;69.00
34542;DHT22;20784;51.332;12.410;2023-04-06T13:33:23;16.10;69.00
34542;DHT22;20784;51.332;12.410;2023-04-06T13:35:52;16.10;68.90
34542;DHT22;20784;51.332;12.410;2023-04-06T13:38:21;16.00;69.60
34542;DHT22;20784;51.332;12.410;2023-04-06T13:40:54;15.80;70.30
34542;DHT22;20784;51.332;12.410;2023-04-06T13:43:32;15.70;70.80
34542;DHT22;20784;51.332;12.410;2023-04-06T13:46:25;15.30;69.90
34542;DHT22;20784;51.332;12.410;2023-04-06T13:52:37;15.10;70.30
34542;DHT22;20784;51.332;12.410;2023-04-06T13:55:09;15.00;72.20
34542;DHT22;20784;51.332;12.410;2023-04-06T13:57:40;14.80;72.70
34542;DHT22;20784;51.332;12.410;2023-04-06T14:00:18;14.80;73.00
34542;DHT22;20784;51.332;12.410;2023-04-06T14:02:49;14.80;73.30
34542;DHT22;20784;51.332;12.410;2023-04-06T14:05:21;14.80;72.60
34542;DHT22;20784;51.332;12.410;2023-04-06T14:07:50;14.60;72.60
34542;DHT22;20784;51.332;12.410;2023-04-06T14:12:56;15.00;74.80
34542;DHT22;20784;51.332;12.410;2023-04-06T14:15:29;15.40;73.50
34542;DHT22;20784;51.332;12.410;2023-04-06T14:18:14;15.20;71.30
34542;DHT22;20784;51.332;12.410;2023-04-06T14:20:40;15.10;71.40
34542;DHT22;20784;51.332;12.410;2023-04-06T14:23:09;15.00;71.80
34542;DHT22;20784;51.332;12.410;2023-04-06T14:31:47;15.20;71.80
34542;DHT22;20784;51.332;12.410;2023-04-06T14:34:26;15.20;76.50
34542;DHT22;20784;51.332;12.410;2023-04-06T14:45:02;14.90;72.30
34542;DHT22;20784;51.332;12.410;2023-04-06T14:47:30;14.90;73.30
34542;DHT22;20784;51.332;12.410;2023-04-06T14:55:43;14.90;73.30
34542;DHT22;20784;51.332;12.410;2023-04-06T14:58:15;15.00;71.10
34542;DHT22;20784;51.332;12.410;2023-04-06T15:00:49;14.90;71.80
34542;DHT22;20784;51.332;12.410;2023-04-06T15:03:34;14.70;73.50
34542;DHT22;20784;51.332;12.410;2023-04-06T15:06:22;14.60;74.00
34542;DHT22;20784;51.332;12.410;2023-04-06T15:15:19;14.50;73.00
34542;DHT22;20784;51.332;12.410;2023-04-06T15:18:29;14.30;73.20
34542;DHT22;20784;51.332;12.410;2023-04-06T15:21:15;14.30;74.00
34542;DHT22;20784;51.332;12.410;2023-04-06T15:23:41;14.30;74.60
34542;DHT22;20784;51.332;12.410;2023-04-06T15:26:07;14.30;74.50
34542;DHT22;20784;51.332;12.410;2023-04-06T15:28:32;14.30;75.00
34542;DHT22;20784;51.332;12.410;2023-04-06T15:30:58;14.30;75.50
34542;DHT22;20784;51.332;12.410;2023-04-06T15:33:26;14.50;74.80
34542;DHT22;20784;51.332;12.410;2023-04-06T15:36:06;14.50;73.90
34542;DHT22;20784;51.332;12.410;2023-04-06T15:38:33;14.10;73.90
34542;DHT22;20784;51.332;12.410;2023-04-06T15:40:59;13.90;75.10
34542;DHT22;20784;51.332;12.410;2023-04-06T15:43:37;13.80;75.00
34542;DHT22;20784;51.332;12.410;2023-04-06T15:46:05;13.90;75.10
34542;DHT22;20784;51.332;12.410;2023-04-06T15:48:30;14.10;75.20
34542;DHT22;20784;51.332;12.410;2023-04-06T15:51:08;14.20;79.10
34542;DHT22;20784;51.332;12.410;2023-04-06T15:53:34;14.20;76.40
34542;DHT22;20784;51.332;12.410;2023-04-06T15:56:00;14.10;76.80
34542;DHT22;20784;51.332;12.410;2023-04-06T15:58:27;14.00;77.50
34542;DHT22;20784;51.332;12.410;2023-04-06T16:00:53;14.00;77.80
34542;DHT22;20784;51.332;12.410;2023-04-06T16:03:19;13.90;77.00
34542;DHT22;20784;51.332;12.410;2023-04-06T16:09:19;13.80;78.00
34542;DHT22;20784;51.332;12.410;2023-04-06T16:12:06;13.90;87.80
34542;DHT22;20784;51.332;12.410;2023-04-06T16:14:32;13.80;79.20
34542;DHT22;20784;51.332;12.410;2023-04-06T16:16:58;13.90;81.40
34542;DHT22;20784;51.332;12.410;2023-04-06T16:19:23;13.90;79.50
34542;DHT22;20784;51.332;12.410;2023-04-06T16:35:18;13.40;79.80
34542;DHT22;20784;51.332;12.410;2023-04-06T16:38:14;13.50;80.60
34542;DHT22;20784;51.332;12.410;2023-04-06T16:41:08;13.40;80.70
34542;DHT22;20784;51.332;12.410;2023-04-06T16:51:14;13.20;81.00
34542;DHT22;20784;51.332;12.410;2023-04-06T17:14:57;12.50;87.90
34542;DHT22;20784;51.332;12.410;2023-04-06T17:18:07;12.20;89.50
34542;DHT22;20784;51.332;12.410;2023-04-06T17:21:06;12.10;90.30
34542;DHT22;20784;51.332;12.410;2023-04-06T17:23:43;11.90;90.80
34542;DHT22;20784;51.332;12.410;2023-04-06T17:29:55;11.80;91.60
34542;DHT22;20784;51.332;12.410;2023-04-06T17:35:56;11.50;92.10
34542;DHT22;20784;51.332;12.410;2023-04-06T17:41:39;11.20;93.00
34542;DHT22;20784;51.332;12.410;2023-04-06T17:44:18;11.10;93.30
34542;DHT22;20784;51.332;12.410;2023-04-06T17:46:56;11.20;93.70
34542;DHT22;20784;51.332;12.410;2023-04-06T17:49:25;11.10;93.80
34542;DHT22;20784;51.332;12.410;2023-04-06T17:52:17;10.90;94.00
34542;DHT22;20784;51.332;12.410;2023-04-06T17:54:43;10.80;94.50
34542;DHT22;20784;51.332;12.410;2023-04-06T17:57:22;10.80;94.60
34542;DHT22;20784;51.332;12.410;2023-04-06T18:00:01;10.60;94.90
34542;DHT22;20784;51.332;12.410;2023-04-06T18:02:43;10.40;95.20
34542;DHT22;20784;51.332;12.410;2023-04-06T18:05:40;10.40;95.40
34542;DHT22;20784;51.332;12.410;2023-04-06T18:08:18;10.30;95.60
34542;DHT22;20784;51.332;12.410;2023-04-06T18:14:17;10.20;96.10
34542;DHT22;20784;51.332;12.410;2023-04-06T18:16:48;10.10;96.20
34542;DHT22;20784;51.332;12.410;2023-04-06T18:19:14;10.10;96.30
34542;DHT22;20784;51.332;12.410;2023-04-06T18:25:48;10.00;97.00
34542;DHT22;20784;51.332;12.410;2023-04-06T18:28:26;10.00;97.00
34542;DHT22;20784;51.332;12.410;2023-04-06T18:31:15;9.90;97.20
34542;DHT22;20784;51.332;12.410;2023-04-06T18:34:09;9.90;97.30
34542;DHT22;20784;51.332;12.410;2023-04-06T18:40:38;9.80;97.50
34542;DHT22;20784;51.332;12.410;2023-04-06T19:07:11;9.40;99.20
34542;DHT22;20784;51.332;12.410;2023-04-06T19:09:45;9.30;99.20
34542;DHT22;20784;51.332;12.410;2023-04-06T19:15:12;9.20;99.50